createdAt,value
2019-02-24T00:00:08.467Z,4.71
2019-02-24T00:01:08.386Z,4.74
2019-02-24T00:02:08.371Z,4.90
2019-02-24T00:03:08.295Z,4.76
2019-02-24T00:04:08.243Z,4.80
2019-02-24T00:05:08.159Z,4.73
2019-02-24T00:06:08.129Z,4.80
2019-02-24T00:07:08.096Z,4.89
2019-02-24T00:08:08.059Z,4.76
2019-02-24T00:09:07.960Z,4.80
2019-02-24T00:10:07.907Z,4.92
2019-02-24T00:11:09.724Z,4.90
2019-02-24T00:12:07.838Z,4.88
2019-02-24T00:13:07.731Z,4.86
2019-02-24T00:14:07.694Z,4.88
2019-02-24T00:15:07.637Z,4.90
2019-02-24T00:16:07.574Z,4.85
2019-02-24T00:17:07.550Z,4.80
2019-02-24T00:18:07.512Z,4.90
2019-02-24T00:19:07.416Z,4.89
2019-02-24T00:20:07.335Z,4.88
2019-02-24T00:21:07.292Z,4.89
2019-02-24T00:22:07.257Z,4.93
2019-02-24T00:23:07.187Z,4.86
2019-02-24T00:24:07.128Z,4.89
2019-02-24T00:25:07.065Z,4.89
2019-02-24T00:26:07.025Z,4.89
2019-02-24T00:27:06.978Z,4.90
2019-02-24T00:28:07.469Z,4.92
2019-02-24T00:29:06.838Z,4.88
2019-02-24T00:30:06.801Z,4.85
2019-02-24T00:31:06.727Z,4.88
2019-02-24T00:32:06.701Z,4.89
2019-02-24T00:33:06.633Z,4.85
2019-02-24T00:34:06.566Z,4.86
2019-02-24T00:35:06.516Z,4.90
2019-02-24T00:36:06.455Z,4.80
2019-02-24T00:37:06.421Z,4.86
2019-02-24T00:38:06.371Z,4.92
2019-02-24T00:39:06.273Z,4.83
2019-02-24T00:40:06.235Z,4.86
2019-02-24T00:41:06.184Z,4.90
2019-02-24T00:42:06.163Z,4.88
2019-02-24T00:43:06.067Z,4.89
2019-02-24T00:44:06.028Z,4.90
2019-02-24T00:45:05.971Z,4.77
2019-02-24T00:46:05.934Z,4.79
2019-02-24T00:47:05.862Z,4.85
2019-02-24T00:48:05.785Z,4.79
2019-02-24T00:49:05.747Z,4.76
2019-02-24T00:50:05.681Z,4.74
2019-02-24T00:51:05.641Z,4.80
2019-02-24T00:52:05.601Z,4.67
2019-02-24T00:53:05.568Z,4.69
2019-02-24T00:54:05.457Z,4.64
2019-02-24T00:55:05.389Z,4.69
2019-02-24T00:56:05.338Z,4.63
2019-02-24T00:57:05.340Z,4.64
2019-02-24T00:58:05.241Z,4.59
2019-02-24T00:59:05.188Z,4.53
2019-02-24T01:00:05.136Z,4.52
2019-02-24T01:01:05.093Z,4.52
2019-02-24T01:02:05.055Z,4.52
2019-02-24T01:03:04.956Z,4.58
2019-02-24T01:04:04.893Z,4.49
2019-02-24T01:05:04.850Z,4.51
2019-02-24T01:06:04.796Z,4.51
2019-02-24T01:07:04.796Z,4.46
2019-02-24T01:08:04.685Z,4.38
2019-02-24T01:09:04.630Z,4.35
2019-02-24T01:10:04.565Z,4.34
2019-02-24T01:11:04.513Z,4.37
2019-02-24T01:12:04.504Z,4.37
2019-02-24T01:13:04.410Z,4.33
2019-02-24T01:14:04.337Z,4.34
2019-02-24T01:15:04.264Z,4.33
2019-02-24T01:16:04.231Z,4.35
2019-02-24T01:17:04.163Z,4.38
2019-02-24T01:18:04.164Z,4.37
2019-02-24T01:19:04.069Z,4.38
2019-02-24T01:20:04.011Z,4.35
2019-02-24T01:21:03.960Z,4.22
2019-02-24T01:22:03.893Z,4.31
2019-02-24T01:23:03.863Z,4.30
2019-02-24T01:24:03.794Z,4.22
2019-02-24T01:25:03.736Z,4.20
2019-02-24T01:26:03.680Z,4.28
2019-02-24T01:27:03.649Z,4.10
2019-02-24T01:28:03.599Z,4.15
2019-02-24T01:29:03.521Z,4.09
2019-02-24T01:30:03.454Z,4.16
2019-02-24T01:31:03.385Z,4.05
2019-02-24T01:32:03.341Z,4.02
2019-02-24T01:33:03.336Z,3.98
2019-02-24T01:34:03.227Z,4.00
2019-02-24T01:35:03.181Z,4.09
2019-02-24T01:36:03.118Z,3.98
2019-02-24T01:37:03.062Z,3.97
2019-02-24T01:38:03.054Z,4.02
2019-02-24T01:39:02.949Z,3.95
2019-02-24T01:40:02.885Z,3.92
2019-02-24T01:41:02.838Z,3.82
2019-02-24T01:42:02.790Z,3.91
2019-02-24T01:43:02.760Z,3.94
2019-02-24T01:44:02.657Z,3.86
2019-02-24T01:45:02.614Z,3.84
2019-02-24T01:46:02.563Z,3.86
2019-02-24T01:47:02.488Z,3.76
2019-02-24T01:48:02.457Z,3.77
2019-02-24T01:49:02.380Z,3.68
2019-02-24T01:50:02.343Z,3.72
2019-02-24T01:51:02.259Z,3.68
2019-02-24T01:52:02.221Z,3.65
2019-02-24T01:53:02.209Z,3.68
2019-02-24T01:54:02.109Z,3.61
2019-02-24T01:55:02.057Z,3.62
2019-02-24T01:56:02.012Z,3.65
2019-02-24T01:57:01.951Z,3.62
2019-02-24T01:58:01.914Z,3.66
2019-02-24T01:59:01.825Z,3.65
2019-02-24T02:00:01.778Z,3.61
2019-02-24T02:01:01.733Z,3.65
2019-02-24T02:02:01.664Z,3.62
2019-02-24T02:03:01.649Z,3.61
2019-02-24T02:04:01.548Z,3.56
2019-02-24T02:05:01.506Z,3.56
2019-02-24T02:06:01.433Z,3.52
2019-02-24T02:07:01.369Z,3.58
2019-02-24T02:08:01.372Z,3.48
2019-02-24T02:09:01.256Z,3.62
2019-02-24T02:10:01.204Z,3.52
2019-02-24T02:11:01.159Z,3.52
2019-02-24T02:12:01.090Z,3.52
2019-02-24T02:13:01.039Z,3.48
2019-02-24T02:14:01.008Z,3.52
2019-02-24T02:15:00.921Z,3.51
2019-02-24T02:16:00.870Z,3.47
2019-02-24T02:17:00.822Z,3.52
2019-02-24T02:18:00.771Z,3.43
2019-02-24T02:19:00.724Z,3.46
2019-02-24T02:20:00.640Z,3.46
2019-02-24T02:21:00.588Z,3.48
2019-02-24T02:22:00.548Z,3.46
2019-02-24T02:23:00.471Z,3.54
2019-02-24T02:24:00.429Z,3.40
2019-02-24T02:25:00.381Z,3.35
2019-02-24T02:26:00.319Z,3.47
2019-02-24T02:27:00.230Z,3.40
2019-02-24T02:28:00.196Z,3.35
2019-02-24T02:29:00.184Z,3.40
2019-02-24T02:30:00.101Z,3.40
2019-02-24T02:31:00.041Z,3.40
2019-02-24T02:31:59.972Z,3.37
2019-02-24T02:32:59.936Z,3.33
2019-02-24T02:33:59.914Z,3.41
2019-02-24T02:34:59.802Z,3.35
2019-02-24T02:35:59.737Z,3.36
2019-02-24T02:36:59.705Z,3.37
2019-02-24T02:37:59.629Z,3.32
2019-02-24T02:38:59.584Z,3.32
2019-02-24T02:39:59.525Z,3.32
2019-02-24T02:40:59.447Z,3.27
2019-02-24T02:41:59.390Z,3.33
2019-02-24T02:42:59.353Z,3.25
2019-02-24T02:43:59.338Z,3.27
2019-02-24T02:44:59.244Z,3.32
2019-02-24T02:45:59.183Z,3.28
2019-02-24T02:46:59.113Z,3.22
2019-02-24T02:47:59.065Z,3.27
2019-02-24T02:48:59.043Z,3.27
2019-02-24T02:49:58.945Z,3.28
2019-02-24T02:50:58.884Z,3.28
2019-02-24T02:51:58.846Z,3.28
2019-02-24T02:52:58.840Z,3.32
2019-02-24T02:53:58.772Z,3.24
2019-02-24T02:54:58.669Z,3.24
2019-02-24T02:55:58.605Z,3.18
2019-02-24T02:56:58.564Z,3.21
2019-02-24T02:57:58.502Z,3.19
2019-02-24T02:58:58.468Z,3.21
2019-02-24T02:59:58.404Z,3.22
2019-02-24T03:00:58.321Z,3.21
2019-02-24T03:01:58.291Z,3.27
2019-02-24T03:02:58.218Z,3.25
2019-02-24T03:03:58.187Z,3.18
2019-02-24T03:04:58.140Z,3.12
2019-02-24T03:05:58.042Z,3.21
2019-02-24T03:06:58.012Z,3.12
2019-02-24T03:07:57.917Z,3.07
2019-02-24T03:08:57.901Z,3.14
2019-02-24T03:09:57.877Z,3.09
2019-02-24T03:10:57.770Z,3.09
2019-02-24T03:11:57.742Z,3.12
2019-02-24T03:12:57.639Z,3.07
2019-02-24T03:13:57.579Z,3.12
2019-02-24T03:14:57.555Z,3.10
2019-02-24T03:15:57.459Z,3.04
2019-02-24T03:16:57.417Z,3.06
2019-02-24T03:17:57.389Z,2.96
2019-02-24T03:18:57.319Z,2.99
2019-02-24T03:19:57.279Z,3.00
2019-02-24T03:20:57.198Z,2.89
2019-02-24T03:21:57.150Z,2.94
2019-02-24T03:22:57.083Z,2.96
2019-02-24T03:23:57.053Z,2.86
2019-02-24T03:24:57.006Z,2.83
2019-02-24T03:25:56.910Z,2.92
2019-02-24T03:26:56.880Z,2.85
2019-02-24T03:27:56.824Z,2.82
2019-02-24T03:29:03.821Z,2.81
2019-02-24T03:29:56.706Z,2.85
2019-02-24T03:30:56.630Z,2.81
2019-02-24T03:31:56.578Z,2.83
2019-02-24T03:32:56.513Z,2.78
2019-02-24T03:33:56.456Z,2.78
2019-02-24T03:34:56.429Z,2.76
2019-02-24T03:35:56.370Z,2.78
2019-02-24T03:36:56.276Z,2.64
2019-02-24T03:37:56.220Z,2.68
2019-02-24T03:38:56.184Z,2.67
2019-02-24T03:39:56.159Z,2.71
2019-02-24T03:40:56.065Z,2.64
2019-02-24T03:41:56.007Z,2.65
2019-02-24T03:42:55.947Z,2.67
2019-02-24T03:43:55.903Z,2.67
2019-02-24T03:44:55.850Z,2.57
2019-02-24T03:45:55.805Z,2.58
2019-02-24T03:46:55.732Z,2.55
2019-02-24T03:47:55.662Z,2.61
2019-02-24T03:48:55.626Z,2.71
2019-02-24T03:49:55.552Z,2.67
2019-02-24T03:50:55.570Z,2.55
2019-02-24T03:51:55.434Z,2.64
2019-02-24T03:52:55.380Z,2.61
2019-02-24T03:53:55.317Z,2.55
2019-02-24T03:54:55.281Z,2.57
2019-02-24T03:55:57.539Z,2.58
2019-02-24T03:56:55.152Z,2.60
2019-02-24T03:57:55.102Z,2.57
2019-02-24T03:58:55.042Z,2.46
2019-02-24T03:59:54.972Z,2.47
2019-02-24T04:00:54.961Z,2.49
2019-02-24T04:01:54.879Z,2.42
2019-02-24T04:02:54.808Z,2.46
2019-02-24T04:03:54.756Z,2.45
2019-02-24T04:04:54.696Z,2.40
2019-02-24T04:05:54.659Z,2.46
2019-02-24T04:06:54.583Z,2.43
2019-02-24T04:07:54.519Z,2.39
2019-02-24T04:08:54.485Z,2.32
2019-02-24T04:09:54.441Z,2.34
2019-02-24T04:10:54.359Z,2.35
2019-02-24T04:11:54.293Z,2.29
2019-02-24T04:12:54.240Z,2.22
2019-02-24T04:13:54.201Z,2.32
2019-02-24T04:14:54.135Z,2.29
2019-02-24T04:15:54.087Z,2.25
2019-02-24T04:16:54.013Z,2.24
2019-02-24T04:17:53.959Z,2.25
2019-02-24T04:18:53.881Z,2.16
2019-02-24T04:19:53.840Z,2.20
2019-02-24T04:20:53.838Z,2.16
2019-02-24T04:21:53.737Z,2.17
2019-02-24T04:22:53.675Z,2.20
2019-02-24T04:23:53.617Z,2.17
2019-02-24T04:24:53.568Z,2.06
2019-02-24T04:25:53.513Z,2.09
2019-02-24T04:26:53.448Z,2.04
2019-02-24T04:27:53.357Z,2.07
2019-02-24T04:28:53.331Z,2.06
2019-02-24T04:29:53.295Z,2.04
2019-02-24T04:30:53.240Z,2.02
2019-02-24T04:31:53.147Z,2.03
2019-02-24T04:32:53.125Z,1.94
2019-02-24T04:33:53.049Z,1.92
2019-02-24T04:34:52.979Z,1.91
2019-02-24T04:35:52.960Z,1.94
2019-02-24T04:36:52.912Z,1.91
2019-02-24T04:37:52.828Z,1.92
2019-02-24T04:38:52.748Z,1.91
2019-02-24T04:39:52.704Z,1.92
2019-02-24T04:40:52.647Z,1.90
2019-02-24T04:41:52.606Z,1.85
2019-02-24T04:42:52.522Z,1.88
2019-02-24T04:43:52.458Z,1.88
2019-02-24T04:44:52.395Z,1.92
2019-02-24T04:45:52.356Z,1.85
2019-02-24T04:46:52.309Z,1.91
2019-02-24T04:47:52.227Z,1.85
2019-02-24T04:48:52.187Z,1.84
2019-02-24T04:49:52.148Z,1.77
2019-02-24T04:50:52.069Z,1.77
2019-02-24T04:51:52.038Z,1.84
2019-02-24T04:52:52.013Z,1.88
2019-02-24T04:53:51.916Z,1.87
2019-02-24T04:54:51.852Z,1.95
2019-02-24T04:55:51.802Z,1.92
2019-02-24T04:56:51.752Z,1.90
2019-02-24T04:57:51.665Z,1.92
2019-02-24T04:58:51.614Z,1.81
2019-02-24T04:59:51.552Z,1.74
2019-02-24T05:00:51.470Z,1.70
2019-02-24T05:01:51.455Z,1.70
2019-02-24T05:02:51.358Z,1.73
2019-02-24T05:03:51.311Z,1.66
2019-02-24T05:04:51.265Z,1.76
2019-02-24T05:05:51.212Z,1.70
2019-02-24T05:06:51.178Z,1.74
2019-02-24T05:07:51.111Z,1.74
2019-02-24T05:08:51.045Z,1.73
2019-02-24T05:09:50.977Z,1.66
2019-02-24T05:10:50.937Z,1.66
2019-02-24T05:11:50.888Z,1.54
2019-02-24T05:12:50.811Z,1.52
2019-02-24T05:13:50.749Z,1.54
2019-02-24T05:14:50.703Z,1.51
2019-02-24T05:15:50.639Z,1.38
2019-02-24T05:16:50.596Z,1.34
2019-02-24T05:17:50.518Z,1.44
2019-02-24T05:18:50.446Z,1.38
2019-02-24T05:19:50.399Z,1.41
2019-02-24T05:20:50.333Z,1.38
2019-02-24T05:21:50.311Z,1.37
2019-02-24T05:22:50.214Z,1.36
2019-02-24T05:23:50.171Z,1.36
2019-02-24T05:24:50.113Z,1.26
2019-02-24T05:25:50.068Z,1.28
2019-02-24T05:26:50.052Z,1.20
2019-02-24T05:27:49.960Z,1.30
2019-02-24T05:28:49.892Z,1.22
2019-02-24T05:29:49.819Z,1.19
2019-02-24T05:30:49.769Z,1.18
2019-02-24T05:31:49.729Z,1.28
2019-02-24T05:32:49.686Z,1.18
2019-02-24T05:33:49.591Z,1.16
2019-02-24T05:34:49.540Z,1.22
2019-02-24T05:35:49.469Z,1.22
2019-02-24T05:36:49.388Z,1.16
2019-02-24T05:37:49.383Z,1.22
2019-02-24T05:38:49.306Z,1.28
2019-02-24T05:39:49.255Z,1.22
2019-02-24T05:40:49.184Z,1.15
2019-02-24T05:41:49.166Z,1.16
2019-02-24T05:42:49.106Z,1.18
2019-02-24T05:43:49.047Z,1.20
2019-02-24T05:44:48.993Z,1.22
2019-02-24T05:45:48.905Z,1.28
2019-02-24T05:46:48.847Z,1.12
2019-02-24T05:47:48.833Z,1.16
2019-02-24T05:48:48.760Z,1.18
2019-02-24T05:49:48.681Z,1.15
2019-02-24T05:50:48.635Z,1.15
2019-02-24T05:51:48.604Z,1.13
2019-02-24T05:52:48.521Z,1.10
2019-02-24T05:53:48.464Z,1.12
2019-02-24T05:54:48.375Z,1.09
2019-02-24T05:55:48.347Z,1.09
2019-02-24T05:56:48.260Z,0.97
2019-02-24T05:57:48.251Z,1.09
2019-02-24T05:58:48.146Z,1.02
2019-02-24T05:59:54.919Z,1.13
2019-02-24T06:00:48.050Z,1.13
2019-02-24T06:01:47.987Z,1.16
2019-02-24T06:02:47.960Z,1.18
2019-02-24T06:03:47.866Z,1.23
2019-02-24T06:04:47.822Z,1.22
2019-02-24T06:05:47.759Z,1.26
2019-02-24T06:06:47.735Z,1.23
2019-02-24T06:07:47.661Z,1.19
2019-02-24T06:08:47.569Z,1.20
2019-02-24T06:09:47.516Z,1.23
2019-02-24T06:10:47.426Z,1.30
2019-02-24T06:11:47.406Z,1.23
2019-02-24T06:12:47.371Z,1.19
2019-02-24T06:13:47.291Z,1.26
2019-02-24T06:14:47.233Z,1.13
2019-02-24T06:15:47.173Z,1.22
2019-02-24T06:16:47.130Z,1.18
2019-02-24T06:17:47.092Z,1.27
2019-02-24T06:18:47.016Z,1.16
2019-02-24T06:19:46.946Z,1.19
2019-02-24T06:20:46.887Z,1.26
2019-02-24T06:21:46.822Z,1.20
2019-02-24T06:22:46.810Z,1.12
2019-02-24T06:23:46.727Z,1.13
2019-02-24T06:24:46.651Z,1.09
2019-02-24T06:25:46.605Z,1.08
2019-02-24T06:26:46.558Z,0.94
2019-02-24T06:27:46.495Z,0.97
2019-02-24T06:28:46.421Z,1.00
2019-02-24T06:29:46.386Z,1.00
2019-02-24T06:30:46.327Z,1.00
2019-02-24T06:31:46.269Z,0.91
2019-02-24T06:32:46.219Z,0.88
2019-02-24T06:33:46.128Z,0.84
2019-02-24T06:34:46.092Z,0.84
2019-02-24T06:35:46.033Z,0.86
2019-02-24T06:36:45.950Z,0.91
2019-02-24T06:37:45.946Z,0.94
2019-02-24T06:38:45.840Z,0.95
2019-02-24T06:39:45.786Z,0.92
2019-02-24T06:40:45.735Z,1.01
2019-02-24T06:41:45.718Z,1.01
2019-02-24T06:42:45.674Z,0.94
2019-02-24T06:43:45.573Z,1.01
2019-02-24T06:44:45.498Z,0.90
2019-02-24T06:45:45.453Z,0.97
2019-02-24T06:46:45.384Z,1.00
2019-02-24T06:47:45.320Z,1.02
2019-02-24T06:48:45.332Z,0.95
2019-02-24T06:49:45.205Z,1.01
2019-02-24T06:50:45.159Z,1.01
2019-02-24T06:51:45.086Z,1.00
2019-02-24T06:52:45.089Z,0.98
2019-02-24T06:53:44.994Z,0.98
2019-02-24T06:54:44.921Z,0.98
2019-02-24T06:55:44.853Z,1.01
2019-02-24T06:56:44.803Z,0.98
2019-02-24T06:57:44.746Z,1.09
2019-02-24T06:58:44.721Z,1.08
2019-02-24T06:59:44.651Z,1.10
2019-02-24T07:00:44.581Z,1.16
2019-02-24T07:01:44.532Z,1.28
2019-02-24T07:02:44.468Z,1.33
2019-02-24T07:03:44.424Z,1.28
2019-02-24T07:04:44.362Z,1.26
2019-02-24T07:05:44.269Z,1.31
2019-02-24T07:06:44.226Z,1.36
2019-02-24T07:07:44.178Z,1.44
2019-02-24T07:08:44.137Z,1.36
2019-02-24T07:09:44.062Z,1.38
2019-02-24T07:10:43.983Z,1.38
2019-02-24T07:11:43.939Z,1.44
2019-02-24T07:12:43.887Z,1.49
2019-02-24T07:13:43.841Z,1.48
2019-02-24T07:14:43.770Z,1.45
2019-02-24T07:15:43.749Z,1.52
2019-02-24T07:16:43.680Z,1.49
2019-02-24T07:17:43.642Z,1.54
2019-02-24T07:18:43.575Z,1.63
2019-02-24T07:19:43.467Z,1.65
2019-02-24T07:20:43.427Z,1.65
2019-02-24T07:21:43.373Z,1.72
2019-02-24T07:22:43.298Z,1.72
2019-02-24T07:23:43.268Z,1.77
2019-02-24T07:24:43.193Z,1.85
2019-02-24T07:25:43.160Z,1.91
2019-02-24T07:26:43.091Z,1.95
2019-02-24T07:27:43.045Z,1.98
2019-02-24T07:28:42.992Z,1.94
2019-02-24T07:29:42.895Z,2.04
2019-02-24T07:30:42.843Z,2.16
2019-02-24T07:31:42.800Z,2.22
2019-02-24T07:32:42.754Z,2.24
2019-02-24T07:33:42.709Z,2.31
2019-02-24T07:34:42.615Z,2.46
2019-02-24T07:35:42.559Z,2.53
2019-02-24T07:36:42.512Z,2.63
2019-02-24T07:37:42.437Z,2.63
2019-02-24T07:38:42.432Z,2.79
2019-02-24T07:39:42.332Z,2.85
2019-02-24T07:40:42.275Z,2.88
2019-02-24T07:41:42.201Z,3.15
2019-02-24T07:42:42.157Z,3.09
2019-02-24T07:43:42.122Z,3.18
2019-02-24T07:44:42.043Z,3.33
2019-02-24T07:45:41.998Z,3.41
2019-02-24T07:46:41.934Z,3.46
2019-02-24T07:47:41.882Z,3.56
2019-02-24T07:48:41.845Z,3.61
2019-02-24T07:49:41.796Z,3.72
2019-02-24T07:50:41.705Z,3.79
2019-02-24T07:51:41.655Z,3.82
2019-02-24T07:52:41.620Z,4.05
2019-02-24T07:53:41.585Z,4.01
2019-02-24T07:54:41.474Z,4.15
2019-02-24T07:55:41.430Z,4.19
2019-02-24T07:56:41.381Z,4.27
2019-02-24T07:57:41.307Z,4.37
2019-02-24T07:58:41.298Z,4.41
2019-02-24T07:59:41.203Z,4.56
2019-02-24T08:00:41.142Z,4.63
2019-02-24T08:01:42.521Z,4.66
2019-02-24T08:02:41.030Z,4.85
2019-02-24T08:03:41.040Z,4.90
2019-02-24T08:04:40.918Z,4.92
2019-02-24T08:05:40.860Z,4.96
2019-02-24T08:06:40.803Z,4.98
2019-02-24T08:07:40.745Z,5.04
2019-02-24T08:08:40.722Z,5.21
2019-02-24T08:09:40.631Z,5.21
2019-02-24T08:10:40.592Z,5.24
2019-02-24T08:11:40.552Z,5.35
2019-02-24T08:12:40.479Z,5.40
2019-02-24T08:13:40.478Z,5.40
2019-02-24T08:14:40.354Z,5.57
2019-02-24T08:15:40.345Z,5.57
2019-02-24T08:16:40.271Z,5.51
2019-02-24T08:17:40.195Z,5.62
2019-02-24T08:18:48.942Z,5.65
2019-02-24T08:19:40.137Z,5.85
2019-02-24T08:20:40.035Z,5.82
2019-02-24T08:21:39.974Z,6.00
2019-02-24T08:22:39.927Z,5.94
2019-02-24T08:23:39.900Z,6.05
2019-02-24T08:24:39.847Z,6.10
2019-02-24T08:25:39.752Z,6.18
2019-02-24T08:26:39.698Z,6.29
2019-02-24T08:27:39.648Z,6.35
2019-02-24T08:28:39.621Z,6.38
2019-02-24T08:29:39.572Z,6.35
2019-02-24T08:30:41.858Z,6.42
2019-02-24T08:31:39.450Z,6.57
2019-02-24T08:32:39.343Z,6.56
2019-02-24T08:33:39.328Z,6.60
2019-02-24T08:34:39.293Z,6.60
2019-02-24T08:35:39.230Z,6.71
2019-02-24T08:36:39.192Z,6.63
2019-02-24T08:37:39.120Z,6.75
2019-02-24T08:38:40.407Z,6.73
2019-02-24T08:39:39.019Z,6.89
2019-02-24T08:40:38.936Z,6.80
2019-02-24T08:41:38.878Z,6.93
2019-02-24T08:42:38.846Z,6.92
2019-02-24T08:43:38.818Z,6.95
2019-02-24T08:44:38.780Z,6.93
2019-02-24T08:45:38.693Z,7.11
2019-02-24T08:46:38.623Z,7.11
2019-02-24T08:47:38.564Z,7.08
2019-02-24T08:48:38.595Z,7.13
2019-02-24T08:49:38.489Z,7.23
2019-02-24T08:50:38.434Z,7.17
2019-02-24T08:51:38.376Z,7.17
2019-02-24T08:52:38.364Z,7.21
2019-02-24T08:53:38.237Z,7.18
2019-02-24T08:54:38.257Z,7.18
2019-02-24T08:55:38.222Z,7.21
2019-02-24T08:56:38.103Z,7.21
2019-02-24T08:57:38.018Z,7.26
2019-02-24T08:58:37.982Z,7.47
2019-02-24T08:59:38.381Z,7.49
2019-02-24T09:00:37.845Z,7.46
2019-02-24T09:01:37.794Z,7.53
2019-02-24T09:02:37.741Z,7.59
2019-02-24T09:03:37.685Z,7.66
2019-02-24T09:04:37.671Z,7.70
2019-02-24T09:05:37.581Z,7.73
2019-02-24T09:06:37.537Z,7.83
2019-02-24T09:07:37.496Z,7.90
2019-02-24T09:08:37.413Z,7.96
2019-02-24T09:09:37.415Z,7.97
2019-02-24T09:10:37.316Z,7.97
2019-02-24T09:11:37.286Z,8.04
2019-02-24T09:12:37.223Z,7.96
2019-02-24T09:13:37.206Z,8.09
2019-02-24T09:14:37.211Z,8.13
2019-02-24T09:15:37.044Z,8.13
2019-02-24T09:16:36.996Z,8.16
2019-02-24T09:17:36.942Z,8.21
2019-02-24T09:18:36.890Z,8.36
2019-02-24T09:19:36.892Z,8.29
2019-02-24T09:20:36.819Z,8.33
2019-02-24T09:21:36.729Z,8.31
2019-02-24T09:22:36.670Z,8.41
2019-02-24T09:23:36.666Z,8.54
2019-02-24T09:24:36.579Z,8.59
2019-02-24T09:25:36.529Z,8.60
2019-02-24T09:26:36.463Z,8.72
2019-02-24T09:27:36.400Z,8.78
2019-02-24T09:28:36.366Z,8.70
2019-02-24T09:29:36.309Z,8.69
2019-02-24T09:30:36.267Z,8.67
2019-02-24T09:31:36.208Z,8.69
2019-02-24T09:32:36.153Z,8.77
2019-02-24T09:33:36.101Z,8.77
2019-02-24T09:34:36.039Z,8.81
2019-02-24T09:35:36.025Z,8.84
2019-02-24T09:36:35.974Z,8.95
2019-02-24T09:37:35.916Z,8.90
2019-02-24T09:38:35.841Z,8.99
2019-02-24T09:39:35.792Z,8.99
2019-02-24T09:40:35.772Z,8.93
2019-02-24T09:41:35.666Z,8.99
2019-02-24T09:42:35.624Z,9.10
2019-02-24T09:43:35.576Z,9.11
2019-02-24T09:44:36.367Z,9.15
2019-02-24T09:45:39.774Z,9.18
2019-02-24T09:46:35.406Z,9.25
2019-02-24T09:47:35.373Z,9.29
2019-02-24T09:48:35.314Z,9.33
2019-02-24T09:49:35.263Z,9.33
2019-02-24T09:50:35.230Z,9.36
2019-02-24T09:51:35.139Z,9.36
2019-02-24T09:52:35.088Z,9.49
2019-02-24T09:53:35.046Z,9.51
2019-02-24T09:54:34.997Z,9.57
2019-02-24T09:55:34.958Z,9.64
2019-02-24T09:56:34.917Z,9.61
2019-02-24T09:57:36.926Z,9.69
2019-02-24T09:58:34.774Z,9.67
2019-02-24T09:59:34.741Z,9.72
2019-02-24T10:00:34.733Z,9.75
2019-02-24T10:01:34.639Z,9.65
2019-02-24T10:02:34.599Z,9.72
2019-02-24T10:03:34.527Z,9.62
2019-02-24T10:04:34.469Z,9.69
2019-02-24T10:05:34.463Z,9.69
2019-02-24T10:06:34.371Z,9.73
2019-02-24T10:07:34.331Z,9.72
2019-02-24T10:08:34.283Z,9.62
2019-02-24T10:09:34.238Z,9.70
2019-02-24T10:10:34.222Z,9.82
2019-02-24T10:11:34.098Z,9.82
2019-02-24T10:12:34.053Z,9.90
2019-02-24T10:13:34.012Z,9.98
2019-02-24T10:14:33.966Z,10.04
2019-02-24T10:15:33.895Z,10.22
2019-02-24T10:16:33.878Z,10.20
2019-02-24T10:17:33.795Z,10.38
2019-02-24T10:18:33.740Z,10.54
2019-02-24T10:19:33.695Z,10.56
2019-02-24T10:20:33.651Z,10.71
2019-02-24T10:21:33.603Z,10.64
2019-02-24T10:22:33.563Z,10.75
2019-02-24T10:23:33.477Z,10.74
2019-02-24T10:24:33.419Z,10.64
2019-02-24T10:25:33.387Z,10.70
2019-02-24T10:26:33.361Z,10.79
2019-02-24T10:27:33.293Z,10.75
2019-02-24T10:28:33.246Z,10.77
2019-02-24T10:29:33.168Z,10.75
2019-02-24T10:30:33.119Z,10.68
2019-02-24T10:31:33.108Z,10.78
2019-02-24T10:32:33.017Z,10.79
2019-02-24T10:33:32.970Z,10.71
2019-02-24T10:34:32.912Z,10.64
2019-02-24T10:35:32.873Z,10.75
2019-02-24T10:36:32.842Z,10.64
2019-02-24T10:37:32.743Z,10.71
2019-02-24T10:38:32.703Z,10.65
2019-02-24T10:39:32.648Z,10.83
2019-02-24T10:40:32.600Z,10.93
2019-02-24T10:41:32.571Z,10.92
2019-02-24T10:42:32.499Z,10.97
2019-02-24T10:43:32.493Z,11.03
2019-02-24T10:44:32.387Z,11.04
2019-02-24T10:45:32.345Z,11.07
2019-02-24T10:46:32.316Z,10.97
2019-02-24T10:47:32.239Z,11.01
2019-02-24T10:48:32.189Z,11.03
2019-02-24T10:49:32.135Z,10.97
2019-02-24T10:50:32.092Z,10.95
2019-02-24T10:51:32.088Z,10.93
2019-02-24T10:52:31.984Z,11.01
2019-02-24T10:53:31.936Z,11.04
2019-02-24T10:54:31.896Z,11.05
2019-02-24T10:55:31.826Z,11.08
2019-02-24T10:56:31.773Z,11.10
2019-02-24T10:57:31.759Z,11.10
2019-02-24T10:58:34.738Z,11.12
2019-02-24T10:59:31.616Z,11.10
2019-02-24T11:00:31.610Z,11.11
2019-02-24T11:01:31.528Z,11.08
2019-02-24T11:02:31.505Z,11.08
2019-02-24T11:03:31.447Z,11.12
2019-02-24T11:04:31.378Z,11.23
2019-02-24T11:05:31.315Z,11.28
2019-02-24T11:06:31.265Z,11.23
2019-02-24T11:07:31.242Z,11.32
2019-02-24T11:08:31.216Z,11.40
2019-02-24T11:09:31.105Z,11.41
2019-02-24T11:10:31.052Z,11.51
2019-02-24T11:11:31.003Z,11.50
2019-02-24T11:12:30.983Z,11.50
2019-02-24T11:13:30.907Z,11.47
2019-02-24T11:14:30.852Z,11.50
2019-02-24T11:15:30.806Z,11.58
2019-02-24T11:16:32.192Z,11.62
2019-02-24T11:17:30.722Z,11.69
2019-02-24T11:18:30.643Z,11.62
2019-02-24T11:19:30.592Z,11.69
2019-02-24T11:20:30.560Z,11.65
2019-02-24T11:21:30.484Z,11.53
2019-02-24T11:22:30.481Z,11.69
2019-02-24T11:23:30.387Z,11.72
2019-02-24T11:24:30.353Z,11.74
2019-02-24T11:25:30.313Z,11.77
2019-02-24T11:26:30.239Z,11.74
2019-02-24T11:27:30.201Z,11.91
2019-02-24T11:28:30.148Z,11.97
2019-02-24T11:29:30.091Z,11.97
2019-02-24T11:30:30.088Z,12.10
2019-02-24T11:31:37.963Z,12.09
2019-02-24T11:32:29.957Z,12.09
2019-02-24T11:33:29.895Z,12.07
2019-02-24T11:34:29.827Z,12.06
2019-02-24T11:35:29.773Z,12.09
2019-02-24T11:36:29.726Z,12.18
2019-02-24T11:37:29.707Z,12.22
2019-02-24T11:38:29.637Z,12.39
2019-02-24T11:39:29.574Z,12.36
2019-02-24T11:40:29.526Z,12.40
2019-02-24T11:41:29.501Z,12.40
2019-02-24T11:42:29.467Z,12.54
2019-02-24T11:43:29.372Z,12.54
2019-02-24T11:44:29.323Z,12.57
2019-02-24T11:45:29.287Z,12.60
2019-02-24T11:46:29.236Z,12.65
2019-02-24T11:47:29.198Z,12.73
2019-02-24T11:48:29.117Z,12.76
2019-02-24T11:49:29.091Z,12.79
2019-02-24T11:50:29.027Z,12.94
2019-02-24T11:51:28.973Z,12.97
2019-02-24T11:52:28.935Z,12.94
2019-02-24T11:53:28.883Z,13.06
2019-02-24T11:54:28.823Z,13.01
2019-02-24T11:55:28.778Z,13.01
2019-02-24T11:56:28.730Z,12.94
2019-02-24T11:57:28.953Z,12.90
2019-02-24T11:58:28.815Z,12.78
2019-02-24T11:59:28.557Z,12.78
2019-02-24T12:00:28.525Z,12.69
2019-02-24T12:01:28.467Z,12.60
2019-02-24T12:02:34.401Z,12.65
2019-02-24T12:03:28.389Z,12.78
2019-02-24T12:04:28.318Z,12.76
2019-02-24T12:05:28.260Z,12.87
2019-02-24T12:06:28.200Z,12.85
2019-02-24T12:07:28.156Z,12.76
2019-02-24T12:08:28.135Z,12.71
2019-02-24T12:09:28.079Z,12.73
2019-02-24T12:10:28.007Z,12.68
2019-02-24T12:11:27.949Z,12.65
2019-02-24T12:12:27.919Z,12.76
2019-02-24T12:13:27.873Z,12.78
2019-02-24T12:14:27.792Z,12.80
2019-02-24T12:15:27.754Z,12.80
2019-02-24T12:16:27.703Z,12.90
2019-02-24T12:17:27.646Z,12.76
2019-02-24T12:18:27.633Z,12.76
2019-02-24T12:19:27.546Z,12.80
2019-02-24T12:20:27.527Z,12.87
2019-02-24T12:21:27.438Z,12.98
2019-02-24T12:22:27.493Z,13.06
2019-02-24T12:23:27.368Z,13.05
2019-02-24T12:24:27.297Z,13.06
2019-02-24T12:25:27.250Z,13.01
2019-02-24T12:26:27.192Z,13.03
2019-02-24T12:27:27.135Z,13.06
2019-02-24T12:28:27.132Z,13.01
2019-02-24T12:29:27.026Z,13.11
2019-02-24T12:30:26.989Z,13.21
2019-02-24T12:31:26.934Z,13.29
2019-02-24T12:32:26.891Z,13.35
2019-02-24T12:33:26.907Z,13.30
2019-02-24T12:34:26.776Z,13.50
2019-02-24T12:35:26.731Z,13.47
2019-02-24T12:36:26.666Z,13.55
2019-02-24T12:37:26.624Z,13.55
2019-02-24T12:38:26.619Z,13.53
2019-02-24T12:39:26.544Z,13.65
2019-02-24T12:40:26.487Z,13.64
2019-02-24T12:41:26.446Z,13.60
2019-02-24T12:42:26.377Z,13.60
2019-02-24T12:43:26.348Z,13.52
2019-02-24T12:44:26.271Z,13.45
2019-02-24T12:45:26.226Z,13.55
2019-02-24T12:46:26.175Z,13.49
2019-02-24T12:47:26.116Z,13.45
2019-02-24T12:48:26.101Z,13.50
2019-02-24T12:49:26.040Z,13.41
2019-02-24T12:50:25.978Z,13.37
2019-02-24T12:51:25.930Z,13.31
2019-02-24T12:52:25.871Z,13.45
2019-02-24T12:53:27.518Z,13.43
2019-02-24T12:54:25.789Z,13.47
2019-02-24T12:55:25.727Z,13.55
2019-02-24T12:56:25.696Z,13.64
2019-02-24T12:57:25.647Z,13.63
2019-02-24T12:58:25.562Z,13.64
2019-02-24T12:59:25.564Z,13.55
2019-02-24T13:00:25.462Z,13.68
2019-02-24T13:01:25.416Z,13.74
2019-02-24T13:02:25.375Z,13.67
2019-02-24T13:03:25.327Z,13.75
2019-02-24T13:04:25.297Z,13.74
2019-02-24T13:05:25.217Z,13.83
2019-02-24T13:06:25.171Z,13.93
2019-02-24T13:07:25.120Z,13.90
2019-02-24T13:08:25.072Z,13.88
2019-02-24T13:09:25.078Z,13.85
2019-02-24T13:10:24.972Z,13.75
2019-02-24T13:11:24.916Z,13.75